RYR786 EDLW-EDDH
Flight info
| Callsign | RYR786 |
|---|---|
| Flight time | 0h 33m |
| Altitude | 23000 |
| Route | OSN8Q/06 OSN DCT BASUM DCT MUBZI DCT RIBSO RIBSO7A |
| Aircraft | B738/M-SDE2E3FGHIRWXY/LB1 |
Departure
| Time | 2026-05-06 15:00 |
|---|---|
| Airport | Dortmund Airport (EDLW) |
Arrival
| Time | 2026-05-06 15:33 |
|---|---|
| Airport | Hamburg Helmut Schmidt Airport (EDDH) |
| Time | Latitude | Longitude | Altitude | Speed | Heading |
|---|---|---|---|---|---|
| 2026-05-06 14:31 | 51.51560 | 7.61244 | 434 ft | 0 kts | 149° |
| 2026-05-06 14:51 | 51.51568 | 7.61235 | 433 ft | 2 kts | 143° |
| 2026-05-06 14:51 | 51.51581 | 7.61218 | 417 ft | 2 kts | 123° |
| 2026-05-06 14:52 | 51.51585 | 7.61193 | 426 ft | 2 kts | 71° |
| 2026-05-06 14:52 | 51.51580 | 7.61177 | 421 ft | 0 kts | 61° |
| 2026-05-06 14:52 | 51.51580 | 7.61176 | 421 ft | 0 kts | 61° |
| 2026-05-06 14:53 | 51.51602 | 7.61202 | 423 ft | 10 kts | 23° |
| 2026-05-06 14:54 | 51.51667 | 7.61298 | 423 ft | 0 kts | 64° |
| 2026-05-06 14:54 | 51.51668 | 7.61301 | 423 ft | 4 kts | 67° |
| 2026-05-06 14:54 | 51.51662 | 7.61330 | 430 ft | 2 kts | 160° |
| 2026-05-06 14:54 | 51.51655 | 7.61317 | 421 ft | 0 kts | 239° |
| 2026-05-06 14:55 | 51.51651 | 7.61300 | 424 ft | 3 kts | 249° |
| 2026-05-06 14:55 | 51.51644 | 7.61273 | 426 ft | 3 kts | 250° |
| 2026-05-06 14:55 | 51.51636 | 7.61233 | 425 ft | 8 kts | 253° |
| 2026-05-06 14:55 | 51.51609 | 7.61142 | 425 ft | 9 kts | 239° |
| 2026-05-06 14:56 | 51.51586 | 7.61051 | 426 ft | 9 kts | 250° |
| 2026-05-06 14:56 | 51.51562 | 7.60965 | 427 ft | 9 kts | 242° |
| 2026-05-06 14:56 | 51.51534 | 7.60882 | 425 ft | 8 kts | 243° |
| 2026-05-06 14:56 | 51.51508 | 7.60802 | 420 ft | 8 kts | 237° |
| 2026-05-06 14:57 | 51.51476 | 7.60725 | 420 ft | 8 kts | 239° |
| 2026-05-06 14:57 | 51.51450 | 7.60646 | 426 ft | 8 kts | 242° |
| 2026-05-06 14:57 | 51.51423 | 7.60571 | 430 ft | 8 kts | 239° |
| 2026-05-06 14:57 | 51.51414 | 7.60544 | 424 ft | 0 kts | 242° |
| 2026-05-06 14:58 | 51.51410 | 7.60533 | 427 ft | 8 kts | 240° |
| 2026-05-06 14:58 | 51.51372 | 7.60423 | 424 ft | 14 kts | 245° |
| 2026-05-06 14:58 | 51.51381 | 7.60295 | 425 ft | 10 kts | 313° |
| 2026-05-06 14:59 | 51.51441 | 7.60242 | 429 ft | 10 kts | 340° |
| 2026-05-06 14:59 | 51.51499 | 7.60282 | 418 ft | 10 kts | 56° |
| 2026-05-06 14:59 | 51.51548 | 7.60420 | 416 ft | 40 kts | 60° |
| 2026-05-06 14:59 | 51.51853 | 7.61286 | 415 ft | 137 kts | 60° |
| 2026-05-06 15:00 | 51.52443 | 7.62974 | 756 ft | 199 kts | 60° |
| 2026-05-06 15:00 | 51.53146 | 7.65084 | 1971 ft | 218 kts | 60° |
| 2026-05-06 15:00 | 51.53873 | 7.67165 | 3858 ft | 209 kts | 58° |
| 2026-05-06 15:00 | 51.54607 | 7.69226 | 4997 ft | 233 kts | 58° |
| 2026-05-06 15:01 | 51.55532 | 7.71817 | 5019 ft | 298 kts | 59° |
| 2026-05-06 15:01 | 51.56653 | 7.74985 | 5031 ft | 345 kts | 59° |
| 2026-05-06 15:01 | 51.57807 | 7.78264 | 5012 ft | 334 kts | 59° |
| 2026-05-06 15:01 | 51.59229 | 7.81043 | 5011 ft | 311 kts | 36° |
| 2026-05-06 15:02 | 51.61051 | 7.82632 | 5007 ft | 291 kts | 13° |
| 2026-05-06 15:02 | 51.62980 | 7.82541 | 5022 ft | 270 kts | 339° |
| 2026-05-06 15:02 | 51.64546 | 7.81051 | 5037 ft | 257 kts | 324° |
| 2026-05-06 15:02 | 51.66049 | 7.79520 | 5022 ft | 255 kts | 331° |
| 2026-05-06 15:03 | 51.67596 | 7.78315 | 5452 ft | 238 kts | 336° |
| 2026-05-06 15:03 | 51.69191 | 7.77315 | 6130 ft | 254 kts | 339° |
| 2026-05-06 15:03 | 51.70901 | 7.76417 | 6762 ft | 267 kts | 342° |
| 2026-05-06 15:03 | 51.72700 | 7.75621 | 7378 ft | 267 kts | 344° |
| 2026-05-06 15:04 | 51.74512 | 7.74911 | 8014 ft | 268 kts | 345° |
| 2026-05-06 15:04 | 51.76339 | 7.74234 | 8659 ft | 269 kts | 346° |
| 2026-05-06 15:04 | 51.78170 | 7.73569 | 9351 ft | 270 kts | 346° |
| 2026-05-06 15:04 | 51.80047 | 7.73191 | 9980 ft | 277 kts | 5° |
| 2026-05-06 15:05 | 51.81895 | 7.74164 | 10613 ft | 289 kts | 30° |
| 2026-05-06 15:05 | 51.83524 | 7.76149 | 11244 ft | 304 kts | 39° |
| 2026-05-06 15:05 | 51.85153 | 7.78463 | 11886 ft | 316 kts | 41° |
| 2026-05-06 15:05 | 51.86816 | 7.80893 | 12552 ft | 328 kts | 41° |
| 2026-05-06 15:06 | 51.88534 | 7.83404 | 13225 ft | 338 kts | 41° |
| 2026-05-06 15:06 | 51.90316 | 7.85992 | 13885 ft | 349 kts | 41° |
| 2026-05-06 15:06 | 51.92151 | 7.88637 | 14509 ft | 358 kts | 41° |
| 2026-05-06 15:06 | 51.94043 | 7.91352 | 15119 ft | 367 kts | 41° |
| 2026-05-06 15:07 | 51.95977 | 7.94120 | 15757 ft | 374 kts | 41° |
| 2026-05-06 15:07 | 51.97942 | 7.96929 | 16401 ft | 378 kts | 41° |
| 2026-05-06 15:07 | 51.99925 | 7.99762 | 17054 ft | 379 kts | 40° |
| 2026-05-06 15:07 | 52.01883 | 8.02562 | 17712 ft | 380 kts | 40° |
| 2026-05-06 15:08 | 52.03871 | 8.05407 | 18378 ft | 381 kts | 40° |
| 2026-05-06 15:08 | 52.05873 | 8.08273 | 19008 ft | 386 kts | 40° |
| 2026-05-06 15:08 | 52.07905 | 8.11188 | 19596 ft | 391 kts | 40° |
| 2026-05-06 15:08 | 52.09950 | 8.14124 | 20183 ft | 392 kts | 40° |
| 2026-05-06 15:09 | 52.11994 | 8.17063 | 20804 ft | 392 kts | 40° |
| 2026-05-06 15:09 | 52.14044 | 8.20012 | 21477 ft | 395 kts | 40° |
| 2026-05-06 15:09 | 52.16110 | 8.22989 | 22143 ft | 398 kts | 40° |
| 2026-05-06 15:09 | 52.18193 | 8.25997 | 22774 ft | 401 kts | 40° |
| 2026-05-06 15:10 | 52.20344 | 8.28987 | 22822 ft | 411 kts | 34° |
| 2026-05-06 15:10 | 52.22796 | 8.31385 | 22857 ft | 410 kts | 27° |
| 2026-05-06 15:10 | 52.25327 | 8.33561 | 22859 ft | 409 kts | 26° |
| 2026-05-06 15:10 | 52.27866 | 8.35674 | 22852 ft | 409 kts | 26° |
| 2026-05-06 15:11 | 52.30364 | 8.37759 | 22842 ft | 409 kts | 26° |
| 2026-05-06 15:11 | 52.32887 | 8.39892 | 22843 ft | 408 kts | 26° |
| 2026-05-06 15:11 | 52.35399 | 8.42047 | 22857 ft | 408 kts | 27° |
| 2026-05-06 15:11 | 52.37915 | 8.44226 | 22848 ft | 409 kts | 27° |
| 2026-05-06 15:12 | 52.40432 | 8.46421 | 22859 ft | 410 kts | 27° |
| 2026-05-06 15:12 | 52.42954 | 8.48629 | 22862 ft | 412 kts | 27° |
| 2026-05-06 15:12 | 52.45482 | 8.50847 | 22853 ft | 414 kts | 27° |
| 2026-05-06 15:12 | 52.48026 | 8.53084 | 22837 ft | 413 kts | 28° |
| 2026-05-06 15:13 | 52.50558 | 8.55311 | 22852 ft | 412 kts | 28° |
| 2026-05-06 15:13 | 52.53080 | 8.57533 | 22851 ft | 411 kts | 28° |
| 2026-05-06 15:13 | 52.55603 | 8.59757 | 22857 ft | 411 kts | 28° |
| 2026-05-06 15:13 | 52.58117 | 8.61976 | 22864 ft | 411 kts | 28° |
| 2026-05-06 15:14 | 52.60639 | 8.64205 | 22857 ft | 412 kts | 28° |
| 2026-05-06 15:14 | 52.63160 | 8.66436 | 22852 ft | 411 kts | 28° |
| 2026-05-06 15:14 | 52.65685 | 8.68672 | 22865 ft | 411 kts | 28° |
| 2026-05-06 15:14 | 52.68203 | 8.70904 | 22869 ft | 412 kts | 28° |
| 2026-05-06 15:15 | 52.70727 | 8.73144 | 22870 ft | 412 kts | 28° |
| 2026-05-06 15:15 | 52.73228 | 8.75369 | 22872 ft | 413 kts | 29° |
| 2026-05-06 15:15 | 52.75802 | 8.77616 | 22871 ft | 414 kts | 25° |
| 2026-05-06 15:15 | 52.78453 | 8.79290 | 22872 ft | 414 kts | 16° |
| 2026-05-06 15:16 | 52.81275 | 8.80277 | 22885 ft | 413 kts | 10° |
| 2026-05-06 15:16 | 52.84114 | 8.81075 | 22880 ft | 413 kts | 9° |
| 2026-05-06 15:16 | 52.84782 | 8.81256 | 22875 ft | 413 kts | 9° |
| 2026-05-06 15:16 | 52.87074 | 8.81869 | 22884 ft | 413 kts | 9° |
| 2026-05-06 15:17 | 52.89873 | 8.82622 | 22882 ft | 413 kts | 9° |
| 2026-05-06 15:17 | 52.92713 | 8.83400 | 22880 ft | 412 kts | 10° |
| 2026-05-06 15:17 | 52.95544 | 8.84191 | 22879 ft | 412 kts | 10° |
| 2026-05-06 15:17 | 52.98377 | 8.84994 | 22881 ft | 412 kts | 10° |
| 2026-05-06 15:18 | 53.01210 | 8.85804 | 22884 ft | 412 kts | 10° |
| 2026-05-06 15:18 | 53.04037 | 8.86617 | 22887 ft | 412 kts | 10° |
| 2026-05-06 15:18 | 53.06863 | 8.87432 | 22886 ft | 412 kts | 10° |
| 2026-05-06 15:18 | 53.09684 | 8.88247 | 22888 ft | 413 kts | 10° |
| 2026-05-06 15:19 | 53.12515 | 8.89066 | 22889 ft | 413 kts | 10° |
| 2026-05-06 15:19 | 53.15313 | 8.89876 | 22884 ft | 413 kts | 10° |
| 2026-05-06 15:19 | 53.18159 | 8.90700 | 22889 ft | 413 kts | 10° |
| 2026-05-06 15:19 | 53.20995 | 8.91523 | 22764 ft | 415 kts | 9° |
| 2026-05-06 15:20 | 53.23864 | 8.92357 | 22204 ft | 418 kts | 10° |
| 2026-05-06 15:20 | 53.26711 | 8.93185 | 21657 ft | 409 kts | 10° |
| 2026-05-06 15:20 | 53.29465 | 8.93987 | 21116 ft | 395 kts | 10° |
| 2026-05-06 15:20 | 53.32133 | 8.94763 | 20594 ft | 382 kts | 10° |
| 2026-05-06 15:21 | 53.34707 | 8.95513 | 20087 ft | 371 kts | 10° |
| 2026-05-06 15:21 | 53.37219 | 8.96246 | 19591 ft | 361 kts | 10° |
| 2026-05-06 15:21 | 53.39639 | 8.96953 | 19099 ft | 353 kts | 10° |
| 2026-05-06 15:21 | 53.42042 | 8.97655 | 18621 ft | 346 kts | 10° |
| 2026-05-06 15:22 | 53.44412 | 8.98348 | 18139 ft | 340 kts | 10° |
| 2026-05-06 15:22 | 53.46711 | 8.99067 | 17598 ft | 336 kts | 16° |
| 2026-05-06 15:22 | 53.48778 | 9.00756 | 17049 ft | 329 kts | 40° |
| 2026-05-06 15:22 | 53.50243 | 9.03607 | 16523 ft | 321 kts | 64° |
| 2026-05-06 15:23 | 53.51106 | 9.07019 | 16037 ft | 314 kts | 72° |
| 2026-05-06 15:23 | 53.51817 | 9.10468 | 15519 ft | 310 kts | 73° |
| 2026-05-06 15:23 | 53.52494 | 9.13891 | 15026 ft | 307 kts | 74° |
| 2026-05-06 15:23 | 53.53154 | 9.17276 | 14533 ft | 304 kts | 74° |
| 2026-05-06 15:24 | 53.53806 | 9.20643 | 14050 ft | 301 kts | 74° |
| 2026-05-06 15:24 | 53.54449 | 9.23971 | 13562 ft | 298 kts | 73° |
| 2026-05-06 15:24 | 53.55073 | 9.27234 | 13031 ft | 295 kts | 73° |
| 2026-05-06 15:24 | 53.55442 | 9.30599 | 12477 ft | 292 kts | 94° |
| 2026-05-06 15:25 | 53.54932 | 9.33849 | 11965 ft | 289 kts | 119° |
| 2026-05-06 15:25 | 53.53723 | 9.36522 | 11475 ft | 287 kts | 132° |
| 2026-05-06 15:25 | 53.52360 | 9.38951 | 10970 ft | 286 kts | 133° |
| 2026-05-06 15:25 | 53.50970 | 9.41342 | 10475 ft | 285 kts | 134° |
| 2026-05-06 15:26 | 53.49578 | 9.43700 | 9988 ft | 284 kts | 134° |
| 2026-05-06 15:26 | 53.48177 | 9.46047 | 9480 ft | 284 kts | 134° |
| 2026-05-06 15:26 | 53.46771 | 9.48377 | 8957 ft | 282 kts | 134° |
| 2026-05-06 15:26 | 53.45372 | 9.50676 | 8423 ft | 281 kts | 134° |
| 2026-05-06 15:27 | 53.43992 | 9.52933 | 7916 ft | 279 kts | 134° |
| 2026-05-06 15:27 | 53.42608 | 9.55188 | 7420 ft | 276 kts | 133° |
| 2026-05-06 15:27 | 53.41534 | 9.57801 | 6885 ft | 271 kts | 108° |
| 2026-05-06 15:27 | 53.41315 | 9.60868 | 6412 ft | 265 kts | 81° |
| 2026-05-06 15:28 | 53.41976 | 9.63702 | 5909 ft | 263 kts | 54° |
| 2026-05-06 15:28 | 53.43358 | 9.65685 | 5392 ft | 264 kts | 30° |
| 2026-05-06 15:28 | 53.45037 | 9.66915 | 4895 ft | 262 kts | 21° |
| 2026-05-06 15:28 | 53.46764 | 9.67854 | 4400 ft | 258 kts | 22° |
| 2026-05-06 15:29 | 53.48205 | 9.69348 | 4295 ft | 244 kts | 44° |
| 2026-05-06 15:29 | 53.49433 | 9.71323 | 3980 ft | 244 kts | 47° |
| 2026-05-06 15:29 | 53.50579 | 9.73436 | 3657 ft | 246 kts | 51° |
| 2026-05-06 15:29 | 53.51676 | 9.75656 | 3321 ft | 245 kts | 52° |
| 2026-05-06 15:30 | 53.52385 | 9.77115 | 3087 ft | 241 kts | 52° |
| 2026-05-06 15:30 | 53.53771 | 9.79953 | 2650 ft | 228 kts | 51° |
| 2026-05-06 15:30 | 53.54731 | 9.81911 | 2359 ft | 211 kts | 51° |
| 2026-05-06 15:30 | 53.55630 | 9.83744 | 2098 ft | 200 kts | 51° |
| 2026-05-06 15:31 | 53.56509 | 9.85535 | 1818 ft | 194 kts | 51° |
| 2026-05-06 15:31 | 53.57328 | 9.87203 | 1552 ft | 174 kts | 51° |
| 2026-05-06 15:31 | 53.58059 | 9.88691 | 1330 ft | 156 kts | 51° |
| 2026-05-06 15:32 | 53.59291 | 9.91304 | 854 ft | 135 kts | 51° |
| 2026-05-06 15:32 | 53.59684 | 9.92092 | 775 ft | 132 kts | 49° |
| 2026-05-06 15:32 | 53.60518 | 9.93725 | 484 ft | 141 kts | 51° |
| 2026-05-06 15:32 | 53.60940 | 9.94588 | 363 ft | 141 kts | 50° |
| 2026-05-06 15:33 | 53.61569 | 9.95860 | 211 ft | 141 kts | 51° |
| 2026-05-06 15:33 | 53.62188 | 9.97110 | 50 ft | 138 kts | 51° |
| 2026-05-06 15:33 | 53.62756 | 9.98267 | 47 ft | 107 kts | 47° |
| 2026-05-06 15:33 | 53.63098 | 9.98948 | 48 ft | 45 kts | 49° |
| 2026-05-06 15:34 | 53.63177 | 9.99108 | 49 ft | 7 kts | 50° |
| 2026-05-06 15:34 | 53.63247 | 9.99259 | 51 ft | 22 kts | 53° |
| 2026-05-06 15:34 | 53.63288 | 9.99504 | 48 ft | 22 kts | 94° |
| 2026-05-06 15:34 | 53.63279 | 9.99627 | 48 ft | 0 kts | 97° |
| 2026-05-06 15:35 | 53.63278 | 9.99643 | 48 ft | 7 kts | 98° |
| 2026-05-06 15:35 | 53.63235 | 9.99757 | 48 ft | 17 kts | 156° |
| 2026-05-06 15:36 | 53.63103 | 9.99865 | 46 ft | 24 kts | 152° |
| 2026-05-06 15:36 | 53.63054 | 9.99907 | 46 ft | 3 kts | 152° |
| 2026-05-06 15:36 | 53.63027 | 9.99931 | 46 ft | 6 kts | 152° |
| 2026-05-06 15:36 | 53.62950 | 10.00001 | 43 ft | 18 kts | 156° |
| 2026-05-06 15:37 | 53.62828 | 10.00090 | 44 ft | 20 kts | 162° |
| 2026-05-06 15:37 | 53.62789 | 10.00160 | 43 ft | 7 kts | 88° |
| 2026-05-06 15:37 | 53.62805 | 10.00233 | 42 ft | 0 kts | 63° |
| 2026-05-06 15:37 | 53.62805 | 10.00235 | 42 ft | 2 kts | 63° |
| 2026-05-06 15:38 | 53.62807 | 10.00243 | 43 ft | 0 kts | 62° |